sensor_id;sensor_type;location;lat;lon;timestamp;P1;durP1;ratioP1;P2;durP2;ratioP2
68976;SDS011;56029;52.568;13.588;2023-04-25T00:01:45;8.27;;;4.40;;
68976;SDS011;56029;52.568;13.588;2023-04-25T00:04:10;8.65;;;4.30;;
68976;SDS011;56029;52.568;13.588;2023-04-25T00:06:37;8.00;;;3.87;;
68976;SDS011;56029;52.568;13.588;2023-04-25T00:09:03;8.30;;;4.07;;
68976;SDS011;56029;52.568;13.588;2023-04-25T00:11:32;7.70;;;4.10;;
68976;SDS011;56029;52.568;13.588;2023-04-25T00:13:58;8.88;;;3.80;;
68976;SDS011;56029;52.568;13.588;2023-04-25T00:16:27;8.20;;;3.55;;
68976;SDS011;56029;52.568;13.588;2023-04-25T00:18:54;8.03;;;3.67;;
68976;SDS011;56029;52.568;13.588;2023-04-25T00:21:20;8.00;;;3.92;;
68976;SDS011;56029;52.568;13.588;2023-04-25T00:23:46;7.47;;;3.85;;
68976;SDS011;56029;52.568;13.588;2023-04-25T00:26:12;7.90;;;3.70;;
68976;SDS011;56029;52.568;13.588;2023-04-25T00:28:38;7.53;;;4.00;;
68976;SDS011;56029;52.568;13.588;2023-04-25T00:31:05;6.83;;;3.43;;
68976;SDS011;56029;52.568;13.588;2023-04-25T00:33:30;7.60;;;3.53;;
68976;SDS011;56029;52.568;13.588;2023-04-25T00:35:56;6.90;;;3.43;;
68976;SDS011;56029;52.568;13.588;2023-04-25T00:38:21;8.67;;;3.40;;
68976;SDS011;56029;52.568;13.588;2023-04-25T00:40:47;4.93;;;2.33;;
68976;SDS011;56029;52.568;13.588;2023-04-25T00:43:13;7.53;;;3.40;;
68976;SDS011;56029;52.568;13.588;2023-04-25T00:45:39;7.65;;;3.55;;
68976;SDS011;56029;52.568;13.588;2023-04-25T00:48:05;6.43;;;3.20;;
68976;SDS011;56029;52.568;13.588;2023-04-25T00:50:32;6.83;;;3.03;;
68976;SDS011;56029;52.568;13.588;2023-04-25T00:52:58;6.32;;;2.83;;
68976;SDS011;56029;52.568;13.588;2023-04-25T00:55:25;7.57;;;2.90;;
68976;SDS011;56029;52.568;13.588;2023-04-25T00:57:51;7.83;;;3.10;;
68976;SDS011;56029;52.568;13.588;2023-04-25T01:00:17;8.70;;;3.47;;
68976;SDS011;56029;52.568;13.588;2023-04-25T01:02:45;8.75;;;3.40;;
68976;SDS011;56029;52.568;13.588;2023-04-25T01:05:11;8.68;;;3.47;;
68976;SDS011;56029;52.568;13.588;2023-04-25T01:07:37;8.80;;;3.20;;
68976;SDS011;56029;52.568;13.588;2023-04-25T01:10:04;7.68;;;3.45;;
68976;SDS011;56029;52.568;13.588;2023-04-25T01:12:31;7.47;;;2.90;;
68976;SDS011;56029;52.568;13.588;2023-04-25T01:14:57;8.38;;;3.15;;
68976;SDS011;56029;52.568;13.588;2023-04-25T01:17:22;8.10;;;3.33;;
68976;SDS011;56029;52.568;13.588;2023-04-25T01:19:49;8.38;;;3.30;;
68976;SDS011;56029;52.568;13.588;2023-04-25T01:22:15;8.53;;;3.50;;
68976;SDS011;56029;52.568;13.588;2023-04-25T01:24:42;6.32;;;3.05;;
68976;SDS011;56029;52.568;13.588;2023-04-25T01:27:08;6.28;;;3.08;;
68976;SDS011;56029;52.568;13.588;2023-04-25T01:29:35;8.57;;;3.40;;
68976;SDS011;56029;52.568;13.588;2023-04-25T01:32:01;9.02;;;3.65;;
68976;SDS011;56029;52.568;13.588;2023-04-25T01:34:27;8.37;;;3.07;;
68976;SDS011;56029;52.568;13.588;2023-04-25T01:36:52;7.75;;;2.92;;
68976;SDS011;56029;52.568;13.588;2023-04-25T01:39:18;6.57;;;3.10;;
68976;SDS011;56029;52.568;13.588;2023-04-25T01:41:44;8.88;;;2.97;;
68976;SDS011;56029;52.568;13.588;2023-04-25T01:44:11;8.55;;;3.47;;
68976;SDS011;56029;52.568;13.588;2023-04-25T01:46:37;8.73;;;3.33;;
68976;SDS011;56029;52.568;13.588;2023-04-25T01:49:03;10.65;;;3.58;;
68976;SDS011;56029;52.568;13.588;2023-04-25T01:51:29;9.43;;;3.57;;
68976;SDS011;56029;52.568;13.588;2023-04-25T01:53:55;6.70;;;3.20;;
68976;SDS011;56029;52.568;13.588;2023-04-25T01:56:22;6.97;;;3.55;;
68976;SDS011;56029;52.568;13.588;2023-04-25T01:58:48;10.67;;;3.50;;
68976;SDS011;56029;52.568;13.588;2023-04-25T02:01:13;8.80;;;3.40;;
68976;SDS011;56029;52.568;13.588;2023-04-25T02:03:39;8.20;;;3.20;;
68976;SDS011;56029;52.568;13.588;2023-04-25T02:06:05;5.93;;;3.10;;
68976;SDS011;56029;52.568;13.588;2023-04-25T02:08:31;8.32;;;3.55;;
68976;SDS011;56029;52.568;13.588;2023-04-25T02:10:56;10.03;;;3.70;;
68976;SDS011;56029;52.568;13.588;2023-04-25T02:13:22;11.82;;;3.75;;
68976;SDS011;56029;52.568;13.588;2023-04-25T02:15:48;8.07;;;3.40;;
68976;SDS011;56029;52.568;13.588;2023-04-25T02:18:14;9.37;;;3.50;;
68976;SDS011;56029;52.568;13.588;2023-04-25T02:20:41;9.98;;;3.92;;
68976;SDS011;56029;52.568;13.588;2023-04-25T02:23:07;8.93;;;3.63;;
68976;SDS011;56029;52.568;13.588;2023-04-25T02:25:32;8.33;;;3.70;;
68976;SDS011;56029;52.568;13.588;2023-04-25T02:27:58;8.48;;;3.60;;
68976;SDS011;56029;52.568;13.588;2023-04-25T02:30:24;9.60;;;3.80;;
68976;SDS011;56029;52.568;13.588;2023-04-25T02:32:49;8.13;;;3.58;;
68976;SDS011;56029;52.568;13.588;2023-04-25T02:35:15;6.90;;;3.40;;
68976;SDS011;56029;52.568;13.588;2023-04-25T02:37:41;9.33;;;4.17;;
68976;SDS011;56029;52.568;13.588;2023-04-25T02:40:07;8.63;;;4.15;;
68976;SDS011;56029;52.568;13.588;2023-04-25T02:42:34;8.98;;;4.10;;
68976;SDS011;56029;52.568;13.588;2023-04-25T02:44:59;10.30;;;4.47;;
68976;SDS011;56029;52.568;13.588;2023-04-25T02:47:25;10.00;;;3.95;;
68976;SDS011;56029;52.568;13.588;2023-04-25T02:49:50;8.30;;;3.90;;
68976;SDS011;56029;52.568;13.588;2023-04-25T02:52:16;8.37;;;4.10;;
68976;SDS011;56029;52.568;13.588;2023-04-25T02:54:42;8.50;;;3.67;;
68976;SDS011;56029;52.568;13.588;2023-04-25T02:57:07;8.60;;;4.20;;
68976;SDS011;56029;52.568;13.588;2023-04-25T02:59:33;10.60;;;4.27;;
68976;SDS011;56029;52.568;13.588;2023-04-25T03:01:59;10.93;;;4.55;;
68976;SDS011;56029;52.568;13.588;2023-04-25T03:04:25;9.97;;;4.07;;
68976;SDS011;56029;52.568;13.588;2023-04-25T03:06:51;9.80;;;4.00;;
68976;SDS011;56029;52.568;13.588;2023-04-25T03:09:16;8.93;;;4.03;;
68976;SDS011;56029;52.568;13.588;2023-04-25T03:11:43;11.35;;;4.30;;
68976;SDS011;56029;52.568;13.588;2023-04-25T03:14:09;10.73;;;4.72;;
68976;SDS011;56029;52.568;13.588;2023-04-25T03:16:35;9.53;;;4.30;;
68976;SDS011;56029;52.568;13.588;2023-04-25T03:19:01;8.23;;;4.20;;
68976;SDS011;56029;52.568;13.588;2023-04-25T03:21:27;11.97;;;4.50;;
68976;SDS011;56029;52.568;13.588;2023-04-25T03:23:53;8.65;;;4.25;;
68976;SDS011;56029;52.568;13.588;2023-04-25T03:26:19;8.80;;;3.60;;
68976;SDS011;56029;52.568;13.588;2023-04-25T03:28:44;10.45;;;4.75;;
68976;SDS011;56029;52.568;13.588;2023-04-25T03:31:10;9.73;;;4.40;;
68976;SDS011;56029;52.568;13.588;2023-04-25T03:33:35;9.93;;;4.53;;
68976;SDS011;56029;52.568;13.588;2023-04-25T03:36:01;9.50;;;4.68;;
68976;SDS011;56029;52.568;13.588;2023-04-25T03:38:27;10.90;;;4.30;;
68976;SDS011;56029;52.568;13.588;2023-04-25T03:40:53;9.45;;;4.60;;
68976;SDS011;56029;52.568;13.588;2023-04-25T03:43:19;11.55;;;4.68;;
68976;SDS011;56029;52.568;13.588;2023-04-25T03:45:44;9.93;;;4.30;;
68976;SDS011;56029;52.568;13.588;2023-04-25T03:48:10;9.17;;;4.53;;
68976;SDS011;56029;52.568;13.588;2023-04-25T03:50:36;10.77;;;4.53;;
68976;SDS011;56029;52.568;13.588;2023-04-25T03:53:01;8.70;;;4.57;;
68976;SDS011;56029;52.568;13.588;2023-04-25T03:55:27;11.52;;;4.80;;
68976;SDS011;56029;52.568;13.588;2023-04-25T03:57:52;11.57;;;5.30;;
68976;SDS011;56029;52.568;13.588;2023-04-25T04:00:18;11.07;;;4.80;;
68976;SDS011;56029;52.568;13.588;2023-04-25T04:02:43;11.13;;;4.73;;
68976;SDS011;56029;52.568;13.588;2023-04-25T04:05:09;10.43;;;4.93;;
68976;SDS011;56029;52.568;13.588;2023-04-25T04:07:34;9.53;;;4.73;;
68976;SDS011;56029;52.568;13.588;2023-04-25T04:10:08;10.90;;;4.35;;
68976;SDS011;56029;52.568;13.588;2023-04-25T04:12:36;11.65;;;5.25;;
68976;SDS011;56029;52.568;13.588;2023-04-25T04:15:03;11.27;;;4.50;;
68976;SDS011;56029;52.568;13.588;2023-04-25T04:17:30;11.40;;;4.70;;
68976;SDS011;56029;52.568;13.588;2023-04-25T04:19:56;11.73;;;5.18;;
68976;SDS011;56029;52.568;13.588;2023-04-25T04:22:21;11.13;;;5.10;;
68976;SDS011;56029;52.568;13.588;2023-04-25T04:24:48;11.05;;;4.53;;
68976;SDS011;56029;52.568;13.588;2023-04-25T04:27:15;10.68;;;4.93;;
68976;SDS011;56029;52.568;13.588;2023-04-25T04:29:44;12.73;;;5.38;;
68976;SDS011;56029;52.568;13.588;2023-04-25T04:32:11;11.63;;;4.80;;
68976;SDS011;56029;52.568;13.588;2023-04-25T04:34:37;10.53;;;4.70;;
68976;SDS011;56029;52.568;13.588;2023-04-25T04:37:04;11.73;;;4.80;;
68976;SDS011;56029;52.568;13.588;2023-04-25T04:39:30;9.32;;;4.45;;
68976;SDS011;56029;52.568;13.588;2023-04-25T04:41:55;11.23;;;4.07;;
68976;SDS011;56029;52.568;13.588;2023-04-25T04:44:21;12.80;;;4.53;;
68976;SDS011;56029;52.568;13.588;2023-04-25T04:46:47;10.70;;;5.00;;
68976;SDS011;56029;52.568;13.588;2023-04-25T04:49:13;9.95;;;4.68;;
68976;SDS011;56029;52.568;13.588;2023-04-25T04:51:39;10.33;;;4.17;;
68976;SDS011;56029;52.568;13.588;2023-04-25T04:54:09;9.98;;;4.65;;
68976;SDS011;56029;52.568;13.588;2023-04-25T04:56:35;9.90;;;4.37;;
68976;SDS011;56029;52.568;13.588;2023-04-25T04:59:01;9.52;;;4.40;;
68976;SDS011;56029;52.568;13.588;2023-04-25T05:01:27;10.32;;;3.97;;
68976;SDS011;56029;52.568;13.588;2023-04-25T05:03:54;12.20;;;4.50;;
68976;SDS011;56029;52.568;13.588;2023-04-25T05:06:25;10.73;;;4.60;;
68976;SDS011;56029;52.568;13.588;2023-04-25T05:08:51;8.07;;;4.30;;
68976;SDS011;56029;52.568;13.588;2023-04-25T05:11:17;8.52;;;3.58;;
68976;SDS011;56029;52.568;13.588;2023-04-25T05:13:43;9.40;;;4.30;;
68976;SDS011;56029;52.568;13.588;2023-04-25T05:16:08;9.43;;;4.07;;
68976;SDS011;56029;52.568;13.588;2023-04-25T05:18:34;10.73;;;3.93;;
68976;SDS011;56029;52.568;13.588;2023-04-25T05:21:00;10.32;;;4.00;;
68976;SDS011;56029;52.568;13.588;2023-04-25T05:23:26;10.70;;;4.50;;
68976;SDS011;56029;52.568;13.588;2023-04-25T05:25:52;12.23;;;4.57;;
68976;SDS011;56029;52.568;13.588;2023-04-25T05:28:18;10.40;;;4.30;;
68976;SDS011;56029;52.568;13.588;2023-04-25T05:30:44;10.00;;;4.30;;
68976;SDS011;56029;52.568;13.588;2023-04-25T05:33:09;11.70;;;4.23;;
68976;SDS011;56029;52.568;13.588;2023-04-25T05:35:35;9.90;;;4.25;;
68976;SDS011;56029;52.568;13.588;2023-04-25T05:38:00;10.80;;;4.47;;
68976;SDS011;56029;52.568;13.588;2023-04-25T05:40:26;10.37;;;4.60;;
68976;SDS011;56029;52.568;13.588;2023-04-25T05:42:52;10.27;;;4.32;;
68976;SDS011;56029;52.568;13.588;2023-04-25T05:45:17;9.63;;;4.50;;
68976;SDS011;56029;52.568;13.588;2023-04-25T05:47:43;10.70;;;4.70;;
68976;SDS011;56029;52.568;13.588;2023-04-25T05:50:08;12.27;;;4.33;;
68976;SDS011;56029;52.568;13.588;2023-04-25T05:52:34;12.45;;;4.78;;
68976;SDS011;56029;52.568;13.588;2023-04-25T05:55:00;11.20;;;4.60;;
68976;SDS011;56029;52.568;13.588;2023-04-25T05:57:26;13.97;;;4.50;;
68976;SDS011;56029;52.568;13.588;2023-04-25T05:59:52;9.07;;;4.18;;
68976;SDS011;56029;52.568;13.588;2023-04-25T06:02:19;10.07;;;4.15;;
68976;SDS011;56029;52.568;13.588;2023-04-25T06:04:49;9.90;;;4.65;;
68976;SDS011;56029;52.568;13.588;2023-04-25T06:07:16;10.07;;;4.75;;
68976;SDS011;56029;52.568;13.588;2023-04-25T06:09:41;12.70;;;4.80;;
68976;SDS011;56029;52.568;13.588;2023-04-25T06:12:07;11.05;;;4.65;;
68976;SDS011;56029;52.568;13.588;2023-04-25T06:14:33;12.63;;;5.13;;
68976;SDS011;56029;52.568;13.588;2023-04-25T06:16:59;12.52;;;5.20;;
68976;SDS011;56029;52.568;13.588;2023-04-25T06:19:31;9.83;;;4.60;;
68976;SDS011;56029;52.568;13.588;2023-04-25T06:22:03;9.52;;;4.30;;
68976;SDS011;56029;52.568;13.588;2023-04-25T06:24:28;10.10;;;4.63;;
68976;SDS011;56029;52.568;13.588;2023-04-25T06:26:54;9.70;;;4.90;;
68976;SDS011;56029;52.568;13.588;2023-04-25T06:29:20;11.32;;;4.80;;
68976;SDS011;56029;52.568;13.588;2023-04-25T06:31:46;11.77;;;5.47;;
68976;SDS011;56029;52.568;13.588;2023-04-25T06:34:11;10.85;;;5.20;;
68976;SDS011;56029;52.568;13.588;2023-04-25T06:36:37;13.53;;;5.40;;
68976;SDS011;56029;52.568;13.588;2023-04-25T06:39:02;11.03;;;5.00;;
68976;SDS011;56029;52.568;13.588;2023-04-25T06:41:28;10.90;;;4.97;;
68976;SDS011;56029;52.568;13.588;2023-04-25T06:43:53;12.20;;;5.30;;
68976;SDS011;56029;52.568;13.588;2023-04-25T06:46:19;12.43;;;5.38;;
68976;SDS011;56029;52.568;13.588;2023-04-25T06:48:44;10.93;;;4.70;;
68976;SDS011;56029;52.568;13.588;2023-04-25T06:51:10;11.97;;;5.10;;
68976;SDS011;56029;52.568;13.588;2023-04-25T06:53:36;12.70;;;5.43;;
68976;SDS011;56029;52.568;13.588;2023-04-25T06:56:02;11.73;;;5.20;;
68976;SDS011;56029;52.568;13.588;2023-04-25T06:58:28;10.07;;;4.85;;
68976;SDS011;56029;52.568;13.588;2023-04-25T07:00:53;10.25;;;4.32;;
68976;SDS011;56029;52.568;13.588;2023-04-25T07:03:19;11.47;;;5.10;;
68976;SDS011;56029;52.568;13.588;2023-04-25T07:05:45;10.67;;;4.73;;
68976;SDS011;56029;52.568;13.588;2023-04-25T07:08:11;12.87;;;4.83;;
68976;SDS011;56029;52.568;13.588;2023-04-25T07:10:36;11.55;;;5.15;;
68976;SDS011;56029;52.568;13.588;2023-04-25T07:13:02;9.07;;;4.37;;
68976;SDS011;56029;52.568;13.588;2023-04-25T07:15:27;10.00;;;4.53;;
68976;SDS011;56029;52.568;13.588;2023-04-25T07:17:53;12.00;;;4.53;;
68976;SDS011;56029;52.568;13.588;2023-04-25T07:20:18;11.67;;;4.87;;
68976;SDS011;56029;52.568;13.588;2023-04-25T07:22:44;10.63;;;4.80;;
68976;SDS011;56029;52.568;13.588;2023-04-25T07:25:09;10.98;;;4.50;;
68976;SDS011;56029;52.568;13.588;2023-04-25T07:27:35;9.37;;;4.70;;
68976;SDS011;56029;52.568;13.588;2023-04-25T07:30:01;10.05;;;4.25;;
68976;SDS011;56029;52.568;13.588;2023-04-25T07:32:27;11.83;;;4.93;;
68976;SDS011;56029;52.568;13.588;2023-04-25T07:34:52;9.47;;;4.90;;
68976;SDS011;56029;52.568;13.588;2023-04-25T07:37:18;11.37;;;5.17;;
68976;SDS011;56029;52.568;13.588;2023-04-25T07:39:44;10.88;;;3.70;;
68976;SDS011;56029;52.568;13.588;2023-04-25T07:42:11;9.77;;;4.03;;
68976;SDS011;56029;52.568;13.588;2023-04-25T07:44:37;10.10;;;4.43;;
68976;SDS011;56029;52.568;13.588;2023-04-25T07:47:06;10.23;;;4.40;;
68976;SDS011;56029;52.568;13.588;2023-04-25T07:49:35;9.65;;;4.90;;
68976;SDS011;56029;52.568;13.588;2023-04-25T07:52:01;11.52;;;4.53;;
68976;SDS011;56029;52.568;13.588;2023-04-25T07:54:27;10.88;;;4.45;;
68976;SDS011;56029;52.568;13.588;2023-04-25T07:56:53;8.53;;;3.67;;
68976;SDS011;56029;52.568;13.588;2023-04-25T07:59:19;11.57;;;4.40;;
68976;SDS011;56029;52.568;13.588;2023-04-25T08:01:45;9.43;;;4.00;;
68976;SDS011;56029;52.568;13.588;2023-04-25T08:04:10;9.77;;;4.10;;
68976;SDS011;56029;52.568;13.588;2023-04-25T08:06:36;10.70;;;4.43;;
68976;SDS011;56029;52.568;13.588;2023-04-25T08:09:02;11.40;;;3.88;;
68976;SDS011;56029;52.568;13.588;2023-04-25T08:11:28;13.40;;;4.57;;
68976;SDS011;56029;52.568;13.588;2023-04-25T08:13:54;15.03;;;4.27;;
68976;SDS011;56029;52.568;13.588;2023-04-25T08:16:19;11.20;;;3.78;;
68976;SDS011;56029;52.568;13.588;2023-04-25T08:18:45;10.43;;;4.47;;
68976;SDS011;56029;52.568;13.588;2023-04-25T08:21:10;9.23;;;3.27;;
68976;SDS011;56029;52.568;13.588;2023-04-25T08:23:37;11.77;;;3.45;;
68976;SDS011;56029;52.568;13.588;2023-04-25T08:26:02;11.35;;;3.60;;
68976;SDS011;56029;52.568;13.588;2023-04-25T08:28:28;14.77;;;4.40;;
68976;SDS011;56029;52.568;13.588;2023-04-25T08:30:54;9.57;;;3.33;;
68976;SDS011;56029;52.568;13.588;2023-04-25T08:33:19;11.87;;;3.90;;
68976;SDS011;56029;52.568;13.588;2023-04-25T08:35:45;12.90;;;4.10;;
68976;SDS011;56029;52.568;13.588;2023-04-25T08:38:10;12.85;;;3.28;;
68976;SDS011;56029;52.568;13.588;2023-04-25T08:40:37;13.10;;;4.07;;
68976;SDS011;56029;52.568;13.588;2023-04-25T08:43:07;9.23;;;3.33;;
68976;SDS011;56029;52.568;13.588;2023-04-25T08:45:38;10.15;;;3.53;;
68976;SDS011;56029;52.568;13.588;2023-04-25T08:48:10;12.43;;;4.03;;
68976;SDS011;56029;52.568;13.588;2023-04-25T08:50:38;12.40;;;3.85;;
68976;SDS011;56029;52.568;13.588;2023-04-25T08:53:05;11.85;;;3.67;;
68976;SDS011;56029;52.568;13.588;2023-04-25T08:55:35;13.13;;;3.60;;
68976;SDS011;56029;52.568;13.588;2023-04-25T08:58:04;11.02;;;3.97;;
68976;SDS011;56029;52.568;13.588;2023-04-25T09:00:30;11.63;;;3.77;;
68976;SDS011;56029;52.568;13.588;2023-04-25T09:02:56;11.90;;;3.42;;
68976;SDS011;56029;52.568;13.588;2023-04-25T09:05:23;10.90;;;4.00;;
68976;SDS011;56029;52.568;13.588;2023-04-25T09:07:49;11.53;;;3.80;;
68976;SDS011;56029;52.568;13.588;2023-04-25T09:10:14;11.35;;;3.90;;
68976;SDS011;56029;52.568;13.588;2023-04-25T09:12:40;11.83;;;3.27;;
68976;SDS011;56029;52.568;13.588;2023-04-25T09:15:06;13.23;;;3.70;;
68976;SDS011;56029;52.568;13.588;2023-04-25T09:17:33;12.80;;;3.70;;
68976;SDS011;56029;52.568;13.588;2023-04-25T09:20:06;13.40;;;3.58;;
68976;SDS011;56029;52.568;13.588;2023-04-25T09:22:34;10.23;;;2.90;;
68976;SDS011;56029;52.568;13.588;2023-04-25T09:25:01;10.98;;;3.22;;
68976;SDS011;56029;52.568;13.588;2023-04-25T09:27:28;9.50;;;2.83;;
68976;SDS011;56029;52.568;13.588;2023-04-25T09:29:58;10.73;;;3.40;;
68976;SDS011;56029;52.568;13.588;2023-04-25T09:32:27;10.13;;;3.00;;
68976;SDS011;56029;52.568;13.588;2023-04-25T09:34:53;5.90;;;2.95;;
68976;SDS011;56029;52.568;13.588;2023-04-25T09:37:23;8.57;;;2.80;;
68976;SDS011;56029;52.568;13.588;2023-04-25T09:39:59;7.95;;;2.58;;
68976;SDS011;56029;52.568;13.588;2023-04-25T09:42:31;10.75;;;2.70;;
68976;SDS011;56029;52.568;13.588;2023-04-25T09:44:57;11.82;;;3.00;;
68976;SDS011;56029;52.568;13.588;2023-04-25T09:47:24;10.43;;;3.10;;
68976;SDS011;56029;52.568;13.588;2023-04-25T09:49:52;8.13;;;2.70;;
68976;SDS011;56029;52.568;13.588;2023-04-25T09:52:22;8.25;;;2.60;;
68976;SDS011;56029;52.568;13.588;2023-04-25T09:54:49;9.27;;;2.28;;
68976;SDS011;56029;52.568;13.588;2023-04-25T09:57:17;9.85;;;2.67;;
68976;SDS011;56029;52.568;13.588;2023-04-25T09:59:52;7.47;;;2.42;;
68976;SDS011;56029;52.568;13.588;2023-04-25T10:02:20;14.33;;;2.90;;
68976;SDS011;56029;52.568;13.588;2023-04-25T10:04:48;8.32;;;2.33;;
68976;SDS011;56029;52.568;13.588;2023-04-25T10:07:16;8.82;;;2.80;;
68976;SDS011;56029;52.568;13.588;2023-04-25T10:09:44;10.85;;;3.53;;
68976;SDS011;56029;52.568;13.588;2023-04-25T10:12:18;11.05;;;3.05;;
68976;SDS011;56029;52.568;13.588;2023-04-25T10:14:44;9.20;;;2.80;;
68976;SDS011;56029;52.568;13.588;2023-04-25T10:17:10;7.13;;;2.47;;
68976;SDS011;56029;52.568;13.588;2023-04-25T10:19:36;7.55;;;2.17;;
68976;SDS011;56029;52.568;13.588;2023-04-25T10:24:59;10.82;;;2.47;;
68976;SDS011;56029;52.568;13.588;2023-04-25T10:27:29;7.07;;;2.30;;
68976;SDS011;56029;52.568;13.588;2023-04-25T10:30:03;6.40;;;2.45;;
68976;SDS011;56029;52.568;13.588;2023-04-25T10:32:30;5.38;;;2.10;;
68976;SDS011;56029;52.568;13.588;2023-04-25T10:34:57;7.72;;;2.30;;
68976;SDS011;56029;52.568;13.588;2023-04-25T10:37:23;6.30;;;2.10;;
68976;SDS011;56029;52.568;13.588;2023-04-25T10:39:49;7.22;;;2.13;;
68976;SDS011;56029;52.568;13.588;2023-04-25T10:42:15;7.15;;;1.95;;
68976;SDS011;56029;52.568;13.588;2023-04-25T10:44:41;2.97;;;1.60;;
68976;SDS011;56029;52.568;13.588;2023-04-25T10:47:34;7.32;;;2.30;;
68976;SDS011;56029;52.568;13.588;2023-04-25T10:50:04;6.88;;;2.10;;
68976;SDS011;56029;52.568;13.588;2023-04-25T10:52:32;7.82;;;1.95;;
68976;SDS011;56029;52.568;13.588;2023-04-25T10:54:58;6.95;;;2.00;;
68976;SDS011;56029;52.568;13.588;2023-04-25T10:57:37;10.47;;;2.33;;
68976;SDS011;56029;52.568;13.588;2023-04-25T11:00:06;8.95;;;2.35;;
68976;SDS011;56029;52.568;13.588;2023-04-25T11:02:37;9.90;;;2.42;;
68976;SDS011;56029;52.568;13.588;2023-04-25T11:05:05;8.43;;;2.20;;
68976;SDS011;56029;52.568;13.588;2023-04-25T11:10:08;5.47;;;1.80;;
68976;SDS011;56029;52.568;13.588;2023-04-25T11:12:34;6.55;;;2.28;;
68976;SDS011;56029;52.568;13.588;2023-04-25T11:15:01;8.70;;;2.47;;
68976;SDS011;56029;52.568;13.588;2023-04-25T11:17:30;5.55;;;2.10;;
68976;SDS011;56029;52.568;13.588;2023-04-25T11:19:56;5.78;;;2.10;;
68976;SDS011;56029;52.568;13.588;2023-04-25T11:22:21;6.63;;;2.00;;
68976;SDS011;56029;52.568;13.588;2023-04-25T11:24:47;6.15;;;1.80;;
68976;SDS011;56029;52.568;13.588;2023-04-25T11:27:13;6.53;;;1.83;;
68976;SDS011;56029;52.568;13.588;2023-04-25T11:29:40;7.17;;;2.27;;
68976;SDS011;56029;52.568;13.588;2023-04-25T11:32:06;5.15;;;1.58;;
68976;SDS011;56029;52.568;13.588;2023-04-25T11:34:32;5.97;;;1.70;;
68976;SDS011;56029;52.568;13.588;2023-04-25T11:36:59;3.58;;;1.80;;
68976;SDS011;56029;52.568;13.588;2023-04-25T11:39:25;8.30;;;1.92;;
68976;SDS011;56029;52.568;13.588;2023-04-25T11:41:52;5.90;;;1.70;;
68976;SDS011;56029;52.568;13.588;2023-04-25T11:44:18;5.85;;;2.05;;
68976;SDS011;56029;52.568;13.588;2023-04-25T11:46:45;6.30;;;1.98;;
68976;SDS011;56029;52.568;13.588;2023-04-25T11:49:10;8.20;;;1.90;;
68976;SDS011;56029;52.568;13.588;2023-04-25T11:51:44;6.90;;;2.10;;
68976;SDS011;56029;52.568;13.588;2023-04-25T11:54:11;5.80;;;1.83;;
68976;SDS011;56029;52.568;13.588;2023-04-25T11:56:37;5.57;;;1.70;;
68976;SDS011;56029;52.568;13.588;2023-04-25T11:59:06;4.10;;;1.60;;
68976;SDS011;56029;52.568;13.588;2023-04-25T12:01:32;6.40;;;2.00;;
68976;SDS011;56029;52.568;13.588;2023-04-25T12:04:09;6.03;;;1.98;;
68976;SDS011;56029;52.568;13.588;2023-04-25T12:06:46;5.50;;;2.00;;
68976;SDS011;56029;52.568;13.588;2023-04-25T12:09:13;6.43;;;1.90;;
68976;SDS011;56029;52.568;13.588;2023-04-25T12:11:48;6.72;;;2.00;;
68976;SDS011;56029;52.568;13.588;2023-04-25T12:14:24;5.53;;;1.97;;
68976;SDS011;56029;52.568;13.588;2023-04-25T12:16:50;6.15;;;1.98;;
68976;SDS011;56029;52.568;13.588;2023-04-25T12:19:19;5.28;;;1.90;;
68976;SDS011;56029;52.568;13.588;2023-04-25T12:21:45;4.45;;;1.85;;
68976;SDS011;56029;52.568;13.588;2023-04-25T12:26:47;8.60;;;2.13;;
68976;SDS011;56029;52.568;13.588;2023-04-25T12:29:17;5.57;;;2.20;;
68976;SDS011;56029;52.568;13.588;2023-04-25T12:31:50;4.85;;;2.00;;
68976;SDS011;56029;52.568;13.588;2023-04-25T12:34:17;5.05;;;1.85;;
68976;SDS011;56029;52.568;13.588;2023-04-25T12:36:46;5.57;;;2.22;;
68976;SDS011;56029;52.568;13.588;2023-04-25T12:39:15;6.23;;;1.90;;
68976;SDS011;56029;52.568;13.588;2023-04-25T12:41:42;4.22;;;1.60;;
68976;SDS011;56029;52.568;13.588;2023-04-25T12:44:08;5.50;;;1.80;;
68976;SDS011;56029;52.568;13.588;2023-04-25T12:46:34;3.67;;;1.83;;
68976;SDS011;56029;52.568;13.588;2023-04-25T12:49:00;6.30;;;1.90;;
68976;SDS011;56029;52.568;13.588;2023-04-25T12:51:26;3.63;;;1.70;;
68976;SDS011;56029;52.568;13.588;2023-04-25T12:53:52;6.55;;;2.22;;
68976;SDS011;56029;52.568;13.588;2023-04-25T12:56:18;5.00;;;1.80;;
68976;SDS011;56029;52.568;13.588;2023-04-25T12:58:44;4.13;;;1.38;;
68976;SDS011;56029;52.568;13.588;2023-04-25T13:01:10;5.60;;;2.00;;
68976;SDS011;56029;52.568;13.588;2023-04-25T13:03:36;5.85;;;2.03;;
68976;SDS011;56029;52.568;13.588;2023-04-25T13:06:02;5.73;;;1.97;;
68976;SDS011;56029;52.568;13.588;2023-04-25T13:08:27;6.38;;;2.35;;
68976;SDS011;56029;52.568;13.588;2023-04-25T13:10:53;5.17;;;1.87;;
68976;SDS011;56029;52.568;13.588;2023-04-25T13:13:18;5.40;;;2.10;;
68976;SDS011;56029;52.568;13.588;2023-04-25T13:15:44;5.63;;;2.10;;
68976;SDS011;56029;52.568;13.588;2023-04-25T13:18:09;4.97;;;1.87;;
68976;SDS011;56029;52.568;13.588;2023-04-25T13:20:35;5.90;;;2.00;;
68976;SDS011;56029;52.568;13.588;2023-04-25T13:23:00;3.78;;;1.60;;
68976;SDS011;56029;52.568;13.588;2023-04-25T13:25:26;3.73;;;1.37;;
68976;SDS011;56029;52.568;13.588;2023-04-25T13:27:52;4.83;;;1.83;;
68976;SDS011;56029;52.568;13.588;2023-04-25T13:30:17;5.88;;;1.50;;
68976;SDS011;56029;52.568;13.588;2023-04-25T13:32:43;4.00;;;1.30;;
68976;SDS011;56029;52.568;13.588;2023-04-25T13:35:10;3.42;;;1.48;;
68976;SDS011;56029;52.568;13.588;2023-04-25T13:37:36;5.07;;;1.33;;
68976;SDS011;56029;52.568;13.588;2023-04-25T13:40:04;6.07;;;1.50;;
68976;SDS011;56029;52.568;13.588;2023-04-25T13:42:31;2.95;;;1.40;;
68976;SDS011;56029;52.568;13.588;2023-04-25T13:44:57;4.18;;;1.40;;
68976;SDS011;56029;52.568;13.588;2023-04-25T13:47:23;3.90;;;1.43;;
68976;SDS011;56029;52.568;13.588;2023-04-25T13:49:49;6.75;;;1.75;;
68976;SDS011;56029;52.568;13.588;2023-04-25T13:52:15;4.45;;;1.60;;
68976;SDS011;56029;52.568;13.588;2023-04-25T13:54:41;8.10;;;1.90;;
68976;SDS011;56029;52.568;13.588;2023-04-25T13:57:06;5.50;;;1.73;;
68976;SDS011;56029;52.568;13.588;2023-04-25T13:59:32;9.03;;;1.80;;
68976;SDS011;56029;52.568;13.588;2023-04-25T14:01:58;3.17;;;1.30;;
68976;SDS011;56029;52.568;13.588;2023-04-25T14:04:24;3.92;;;1.52;;
68976;SDS011;56029;52.568;13.588;2023-04-25T14:06:50;7.38;;;2.47;;
68976;SDS011;56029;52.568;13.588;2023-04-25T14:09:16;5.27;;;1.70;;
68976;SDS011;56029;52.568;13.588;2023-04-25T14:11:42;4.85;;;1.50;;
68976;SDS011;56029;52.568;13.588;2023-04-25T14:14:08;4.45;;;1.70;;
68976;SDS011;56029;52.568;13.588;2023-04-25T14:16:34;9.50;;;2.00;;
68976;SDS011;56029;52.568;13.588;2023-04-25T14:19:00;8.23;;;3.03;;
68976;SDS011;56029;52.568;13.588;2023-04-25T14:21:26;6.57;;;2.55;;
68976;SDS011;56029;52.568;13.588;2023-04-25T14:23:53;6.25;;;2.38;;
68976;SDS011;56029;52.568;13.588;2023-04-25T14:26:19;4.00;;;1.50;;
68976;SDS011;56029;52.568;13.588;2023-04-25T14:28:45;6.18;;;2.00;;
68976;SDS011;56029;52.568;13.588;2023-04-25T14:31:10;3.83;;;1.60;;
68976;SDS011;56029;52.568;13.588;2023-04-25T14:33:36;6.32;;;2.17;;